sensor_id;sensor_type;location;lat;lon;timestamp;temperature;humidity
13354;DHT22;6746;50.892;4.064;2022-09-23T00:01:16;10.50;99.90
13354;DHT22;6746;50.892;4.064;2022-09-23T00:03:57;10.40;99.90
13354;DHT22;6746;50.892;4.064;2022-09-23T00:06:33;10.30;99.90
13354;DHT22;6746;50.892;4.064;2022-09-23T00:09:14;10.30;99.90
13354;DHT22;6746;50.892;4.064;2022-09-23T00:11:53;10.30;99.90
13354;DHT22;6746;50.892;4.064;2022-09-23T00:14:31;10.30;99.90
13354;DHT22;6746;50.892;4.064;2022-09-23T00:17:09;10.30;99.90
13354;DHT22;6746;50.892;4.064;2022-09-23T00:19:57;10.30;99.90
13354;DHT22;6746;50.892;4.064;2022-09-23T00:22:40;10.30;99.90
13354;DHT22;6746;50.892;4.064;2022-09-23T00:25:19;10.30;99.90
13354;DHT22;6746;50.892;4.064;2022-09-23T00:28:02;10.30;99.90
13354;DHT22;6746;50.892;4.064;2022-09-23T00:30:40;10.30;99.90
13354;DHT22;6746;50.892;4.064;2022-09-23T00:33:23;10.20;99.90
13354;DHT22;6746;50.892;4.064;2022-09-23T00:36:02;10.20;99.90
13354;DHT22;6746;50.892;4.064;2022-09-23T00:38:47;10.20;99.90
13354;DHT22;6746;50.892;4.064;2022-09-23T00:41:26;10.20;99.90
13354;DHT22;6746;50.892;4.064;2022-09-23T00:50:35;10.20;99.90
13354;DHT22;6746;50.892;4.064;2022-09-23T00:53:16;10.30;99.90
13354;DHT22;6746;50.892;4.064;2022-09-23T00:56:03;10.30;99.90
13354;DHT22;6746;50.892;4.064;2022-09-23T00:58:51;10.30;99.90
13354;DHT22;6746;50.892;4.064;2022-09-23T01:01:39;10.20;99.90
13354;DHT22;6746;50.892;4.064;2022-09-23T01:04:27;10.20;99.90
13354;DHT22;6746;50.892;4.064;2022-09-23T01:07:16;10.10;99.90
13354;DHT22;6746;50.892;4.064;2022-09-23T01:09:57;10.10;99.90
13354;DHT22;6746;50.892;4.064;2022-09-23T01:15:39;10.00;99.90
13354;DHT22;6746;50.892;4.064;2022-09-23T01:18:16;10.10;99.90
13354;DHT22;6746;50.892;4.064;2022-09-23T01:21:17;10.00;99.90
13354;DHT22;6746;50.892;4.064;2022-09-23T01:24:19;10.00;99.90
13354;DHT22;6746;50.892;4.064;2022-09-23T01:30:08;9.90;99.90
13354;DHT22;6746;50.892;4.064;2022-09-23T01:33:15;9.80;99.90
13354;DHT22;6746;50.892;4.064;2022-09-23T01:36:13;9.80;99.90
13354;DHT22;6746;50.892;4.064;2022-09-23T01:39:11;9.70;99.90
13354;DHT22;6746;50.892;4.064;2022-09-23T01:42:02;9.70;99.90
13354;DHT22;6746;50.892;4.064;2022-09-23T01:50:31;9.50;99.90
13354;DHT22;6746;50.892;4.064;2022-09-23T01:53:45;9.50;99.90
13354;DHT22;6746;50.892;4.064;2022-09-23T01:56:33;9.50;99.90
13354;DHT22;6746;50.892;4.064;2022-09-23T01:59:28;9.50;99.90
13354;DHT22;6746;50.892;4.064;2022-09-23T02:02:32;9.50;99.90
13354;DHT22;6746;50.892;4.064;2022-09-23T02:05:29;9.50;99.90
13354;DHT22;6746;50.892;4.064;2022-09-23T02:08:15;9.50;99.90
13354;DHT22;6746;50.892;4.064;2022-09-23T02:10:59;9.40;99.90
13354;DHT22;6746;50.892;4.064;2022-09-23T02:16:40;9.30;99.90
13354;DHT22;6746;50.892;4.064;2022-09-23T02:19:36;9.40;99.90
13354;DHT22;6746;50.892;4.064;2022-09-23T02:22:51;9.50;99.90
13354;DHT22;6746;50.892;4.064;2022-09-23T02:25:13;9.50;99.90
13354;DHT22;6746;50.892;4.064;2022-09-23T02:28:07;9.50;99.90
13354;DHT22;6746;50.892;4.064;2022-09-23T02:31:10;9.40;99.90
13354;DHT22;6746;50.892;4.064;2022-09-23T02:34:00;9.40;99.90
13354;DHT22;6746;50.892;4.064;2022-09-23T02:42:54;9.30;99.90
13354;DHT22;6746;50.892;4.064;2022-09-23T02:45:48;9.30;99.90
13354;DHT22;6746;50.892;4.064;2022-09-23T02:48:43;9.30;99.90
13354;DHT22;6746;50.892;4.064;2022-09-23T02:51:30;9.30;99.90
13354;DHT22;6746;50.892;4.064;2022-09-23T02:54:19;9.40;99.90
13354;DHT22;6746;50.892;4.064;2022-09-23T02:57:06;9.40;99.90
13354;DHT22;6746;50.892;4.064;2022-09-23T02:59:55;9.30;99.90
13354;DHT22;6746;50.892;4.064;2022-09-23T03:02:58;9.30;99.90
13354;DHT22;6746;50.892;4.064;2022-09-23T03:05:57;9.30;99.90
13354;DHT22;6746;50.892;4.064;2022-09-23T03:08:47;10.70;99.90
13354;DHT22;6746;50.892;4.064;2022-09-23T03:11:46;9.30;99.90
13354;DHT22;6746;50.892;4.064;2022-09-23T03:15:47;9.20;99.90
13354;DHT22;6746;50.892;4.064;2022-09-23T03:17:51;9.20;99.90
13354;DHT22;6746;50.892;4.064;2022-09-23T03:20:52;9.20;99.90
13354;DHT22;6746;50.892;4.064;2022-09-23T03:23:34;9.20;99.90
13354;DHT22;6746;50.892;4.064;2022-09-23T03:26:21;9.30;99.90
13354;DHT22;6746;50.892;4.064;2022-09-23T03:29:02;9.30;99.90
13354;DHT22;6746;50.892;4.064;2022-09-23T03:31:39;9.40;99.90
13354;DHT22;6746;50.892;4.064;2022-09-23T03:34:24;9.40;99.90
13354;DHT22;6746;50.892;4.064;2022-09-23T03:37:06;9.40;99.90
13354;DHT22;6746;50.892;4.064;2022-09-23T03:42:46;9.50;99.90
13354;DHT22;6746;50.892;4.064;2022-09-23T03:45:31;9.50;99.90
13354;DHT22;6746;50.892;4.064;2022-09-23T03:48:08;9.60;99.90
13354;DHT22;6746;50.892;4.064;2022-09-23T03:50:55;9.50;99.90
13354;DHT22;6746;50.892;4.064;2022-09-23T03:53:34;9.50;99.90
13354;DHT22;6746;50.892;4.064;2022-09-23T03:56:12;9.50;99.90
13354;DHT22;6746;50.892;4.064;2022-09-23T03:58:50;9.50;99.90
13354;DHT22;6746;50.892;4.064;2022-09-23T04:01:29;9.50;99.90
13354;DHT22;6746;50.892;4.064;2022-09-23T04:04:17;9.50;99.90
13354;DHT22;6746;50.892;4.064;2022-09-23T04:06:55;9.50;99.90
13354;DHT22;6746;50.892;4.064;2022-09-23T04:09:33;9.50;99.90
13354;DHT22;6746;50.892;4.064;2022-09-23T04:12:15;9.40;99.90
13354;DHT22;6746;50.892;4.064;2022-09-23T04:14:52;9.40;99.90
13354;DHT22;6746;50.892;4.064;2022-09-23T04:17:33;9.40;99.90
13354;DHT22;6746;50.892;4.064;2022-09-23T04:20:12;9.40;99.90
13354;DHT22;6746;50.892;4.064;2022-09-23T04:22:59;9.40;99.90
13354;DHT22;6746;50.892;4.064;2022-09-23T04:25:44;9.40;99.90
13354;DHT22;6746;50.892;4.064;2022-09-23T04:28:21;9.40;99.90
13354;DHT22;6746;50.892;4.064;2022-09-23T04:31:09;9.40;99.90
13354;DHT22;6746;50.892;4.064;2022-09-23T04:33:57;9.40;99.90
13354;DHT22;6746;50.892;4.064;2022-09-23T04:36:46;9.40;99.90
13354;DHT22;6746;50.892;4.064;2022-09-23T04:39:29;9.40;99.90
13354;DHT22;6746;50.892;4.064;2022-09-23T04:42:08;9.50;99.90
13354;DHT22;6746;50.892;4.064;2022-09-23T04:44:56;9.50;99.90
13354;DHT22;6746;50.892;4.064;2022-09-23T04:47:34;9.50;99.90
13354;DHT22;6746;50.892;4.064;2022-09-23T04:50:13;9.40;99.90
13354;DHT22;6746;50.892;4.064;2022-09-23T04:52:52;9.40;99.90
13354;DHT22;6746;50.892;4.064;2022-09-23T04:55:30;9.40;99.90
13354;DHT22;6746;50.892;4.064;2022-09-23T04:58:16;9.40;99.90
13354;DHT22;6746;50.892;4.064;2022-09-23T05:00:54;9.30;99.90
13354;DHT22;6746;50.892;4.064;2022-09-23T05:03:38;9.30;99.90
13354;DHT22;6746;50.892;4.064;2022-09-23T05:06:16;9.30;99.90
13354;DHT22;6746;50.892;4.064;2022-09-23T05:09:03;9.30;99.90
13354;DHT22;6746;50.892;4.064;2022-09-23T05:11:40;9.30;99.90
13354;DHT22;6746;50.892;4.064;2022-09-23T05:14:29;9.20;99.90
13354;DHT22;6746;50.892;4.064;2022-09-23T05:17:08;9.20;99.90
13354;DHT22;6746;50.892;4.064;2022-09-23T05:19:46;9.20;99.90
13354;DHT22;6746;50.892;4.064;2022-09-23T05:22:24;9.20;99.90
13354;DHT22;6746;50.892;4.064;2022-09-23T05:25:03;9.20;99.90
13354;DHT22;6746;50.892;4.064;2022-09-23T05:27:41;9.30;99.90
13354;DHT22;6746;50.892;4.064;2022-09-23T05:30:19;9.40;99.90
13354;DHT22;6746;50.892;4.064;2022-09-23T05:32:58;9.40;99.90
13354;DHT22;6746;50.892;4.064;2022-09-23T05:35:38;9.50;99.90
13354;DHT22;6746;50.892;4.064;2022-09-23T05:38:16;9.50;99.90
13354;DHT22;6746;50.892;4.064;2022-09-23T05:40:53;9.50;99.90
13354;DHT22;6746;50.892;4.064;2022-09-23T05:43:25;9.50;99.90
13354;DHT22;6746;50.892;4.064;2022-09-23T05:46:07;9.60;99.90
13354;DHT22;6746;50.892;4.064;2022-09-23T05:48:41;9.60;99.90
13354;DHT22;6746;50.892;4.064;2022-09-23T05:51:20;9.60;99.90
13354;DHT22;6746;50.892;4.064;2022-09-23T05:53:58;9.60;99.90
13354;DHT22;6746;50.892;4.064;2022-09-23T05:56:30;9.70;99.90
13354;DHT22;6746;50.892;4.064;2022-09-23T05:58:59;9.80;99.90
13354;DHT22;6746;50.892;4.064;2022-09-23T06:01:47;9.80;99.90
13354;DHT22;6746;50.892;4.064;2022-09-23T06:04:20;9.80;99.90
13354;DHT22;6746;50.892;4.064;2022-09-23T06:06:51;10.60;99.90
13354;DHT22;6746;50.892;4.064;2022-09-23T06:09:29;9.90;99.90
13354;DHT22;6746;50.892;4.064;2022-09-23T06:11:58;9.90;99.90
13354;DHT22;6746;50.892;4.064;2022-09-23T06:14:26;9.90;99.90
13354;DHT22;6746;50.892;4.064;2022-09-23T06:17:05;10.00;99.90
13354;DHT22;6746;50.892;4.064;2022-09-23T06:19:43;10.00;99.90
13354;DHT22;6746;50.892;4.064;2022-09-23T06:22:14;10.10;99.90
13354;DHT22;6746;50.892;4.064;2022-09-23T06:24:43;10.10;99.90
13354;DHT22;6746;50.892;4.064;2022-09-23T06:27:12;10.20;99.90
13354;DHT22;6746;50.892;4.064;2022-09-23T06:29:41;10.30;99.90
13354;DHT22;6746;50.892;4.064;2022-09-23T06:32:15;10.40;99.90
13354;DHT22;6746;50.892;4.064;2022-09-23T06:34:44;10.40;99.90
13354;DHT22;6746;50.892;4.064;2022-09-23T06:37:13;10.40;99.90
13354;DHT22;6746;50.892;4.064;2022-09-23T06:39:42;10.50;99.90
13354;DHT22;6746;50.892;4.064;2022-09-23T06:42:21;10.60;99.90
13354;DHT22;6746;50.892;4.064;2022-09-23T06:44:50;10.70;99.90
13354;DHT22;6746;50.892;4.064;2022-09-23T06:47:28;10.80;99.90
13354;DHT22;6746;50.892;4.064;2022-09-23T06:50:07;10.80;99.90
13354;DHT22;6746;50.892;4.064;2022-09-23T06:52:49;10.90;99.90
13354;DHT22;6746;50.892;4.064;2022-09-23T06:55:19;11.00;99.90
13354;DHT22;6746;50.892;4.064;2022-09-23T06:57:48;11.00;99.90
13354;DHT22;6746;50.892;4.064;2022-09-23T07:00:17;11.10;99.90
13354;DHT22;6746;50.892;4.064;2022-09-23T07:02:55;11.20;99.90
13354;DHT22;6746;50.892;4.064;2022-09-23T07:05:33;11.30;99.90
13354;DHT22;6746;50.892;4.064;2022-09-23T07:08:07;11.30;99.90
13354;DHT22;6746;50.892;4.064;2022-09-23T07:10:38;11.40;99.90
13354;DHT22;6746;50.892;4.064;2022-09-23T07:13:17;11.50;99.90
13354;DHT22;6746;50.892;4.064;2022-09-23T07:15:56;11.50;99.90
13354;DHT22;6746;50.892;4.064;2022-09-23T07:18:33;11.60;99.90
13354;DHT22;6746;50.892;4.064;2022-09-23T07:21:15;11.60;99.90
13354;DHT22;6746;50.892;4.064;2022-09-23T07:23:43;11.70;99.90
13354;DHT22;6746;50.892;4.064;2022-09-23T07:26:12;11.90;99.90
13354;DHT22;6746;50.892;4.064;2022-09-23T07:28:43;12.00;99.90
13354;DHT22;6746;50.892;4.064;2022-09-23T07:31:12;12.10;99.90
13354;DHT22;6746;50.892;4.064;2022-09-23T07:33:48;12.20;99.90
13354;DHT22;6746;50.892;4.064;2022-09-23T07:36:17;12.20;99.90
13354;DHT22;6746;50.892;4.064;2022-09-23T07:38:45;12.30;99.90
13354;DHT22;6746;50.892;4.064;2022-09-23T07:41:14;12.40;99.90
13354;DHT22;6746;50.892;4.064;2022-09-23T07:43:52;12.50;99.90
13354;DHT22;6746;50.892;4.064;2022-09-23T07:46:35;12.60;99.90
13354;DHT22;6746;50.892;4.064;2022-09-23T07:49:04;12.70;99.90
13354;DHT22;6746;50.892;4.064;2022-09-23T07:51:33;12.80;99.90
13354;DHT22;6746;50.892;4.064;2022-09-23T07:54:11;12.90;99.90
13354;DHT22;6746;50.892;4.064;2022-09-23T07:56:41;12.90;99.90
13354;DHT22;6746;50.892;4.064;2022-09-23T07:59:11;13.00;99.90
13354;DHT22;6746;50.892;4.064;2022-09-23T08:01:42;13.00;99.90
13354;DHT22;6746;50.892;4.064;2022-09-23T08:04:10;13.10;99.90
13354;DHT22;6746;50.892;4.064;2022-09-23T08:06:39;13.10;99.90
13354;DHT22;6746;50.892;4.064;2022-09-23T08:09:07;13.10;99.90
13354;DHT22;6746;50.892;4.064;2022-09-23T08:11:38;13.30;99.90
13354;DHT22;6746;50.892;4.064;2022-09-23T08:14:10;13.50;99.90
13354;DHT22;6746;50.892;4.064;2022-09-23T08:16:38;13.70;99.90
13354;DHT22;6746;50.892;4.064;2022-09-23T08:19:06;13.90;99.90
13354;DHT22;6746;50.892;4.064;2022-09-23T08:21:45;14.00;99.90
13354;DHT22;6746;50.892;4.064;2022-09-23T08:24:16;14.20;99.90
13354;DHT22;6746;50.892;4.064;2022-09-23T08:26:44;14.50;99.90
13354;DHT22;6746;50.892;4.064;2022-09-23T08:29:16;14.80;99.90
13354;DHT22;6746;50.892;4.064;2022-09-23T08:31:44;14.90;99.90
13354;DHT22;6746;50.892;4.064;2022-09-23T08:34:23;14.90;99.90
13354;DHT22;6746;50.892;4.064;2022-09-23T08:36:54;15.00;99.90
13354;DHT22;6746;50.892;4.064;2022-09-23T08:39:23;15.20;99.90
13354;DHT22;6746;50.892;4.064;2022-09-23T08:44:51;15.60;99.90
13354;DHT22;6746;50.892;4.064;2022-09-23T08:47:42;15.70;99.90
13354;DHT22;6746;50.892;4.064;2022-09-23T08:50:20;15.70;99.90
13354;DHT22;6746;50.892;4.064;2022-09-23T08:53:02;15.90;99.90
13354;DHT22;6746;50.892;4.064;2022-09-23T08:55:45;16.00;99.90
13354;DHT22;6746;50.892;4.064;2022-09-23T09:03:42;16.00;99.90
13354;DHT22;6746;50.892;4.064;2022-09-23T09:06:56;16.20;99.90
13354;DHT22;6746;50.892;4.064;2022-09-23T09:09:31;16.30;99.90
13354;DHT22;6746;50.892;4.064;2022-09-23T09:12:21;16.40;99.90
13354;DHT22;6746;50.892;4.064;2022-09-23T09:15:01;16.40;99.90
13354;DHT22;6746;50.892;4.064;2022-09-23T09:17:43;16.40;99.90
13354;DHT22;6746;50.892;4.064;2022-09-23T09:20:22;16.30;99.90
13354;DHT22;6746;50.892;4.064;2022-09-23T09:23:20;16.10;99.90
13354;DHT22;6746;50.892;4.064;2022-09-23T09:25:56;16.20;99.90
13354;DHT22;6746;50.892;4.064;2022-09-23T09:33:53;16.70;99.90
13354;DHT22;6746;50.892;4.064;2022-09-23T09:36:43;16.80;99.90
13354;DHT22;6746;50.892;4.064;2022-09-23T09:39:23;16.90;99.90
13354;DHT22;6746;50.892;4.064;2022-09-23T09:41:54;16.70;99.90
13354;DHT22;6746;50.892;4.064;2022-09-23T09:44:30;16.80;99.90
13354;DHT22;6746;50.892;4.064;2022-09-23T09:49:55;17.20;99.90
13354;DHT22;6746;50.892;4.064;2022-09-23T09:52:35;17.50;99.90
13354;DHT22;6746;50.892;4.064;2022-09-23T10:02:52;18.10;99.90
13354;DHT22;6746;50.892;4.064;2022-09-23T10:10:51;18.20;99.90
13354;DHT22;6746;50.892;4.064;2022-09-23T10:13:22;18.20;99.90
13354;DHT22;6746;50.892;4.064;2022-09-23T10:15:54;18.50;99.90
13354;DHT22;6746;50.892;4.064;2022-09-23T10:21:09;18.70;99.90
13354;DHT22;6746;50.892;4.064;2022-09-23T10:23:37;18.70;99.90
13354;DHT22;6746;50.892;4.064;2022-09-23T10:26:11;18.80;99.90
13354;DHT22;6746;50.892;4.064;2022-09-23T10:31:20;18.80;99.90
13354;DHT22;6746;50.892;4.064;2022-09-23T10:33:48;19.00;99.90
13354;DHT22;6746;50.892;4.064;2022-09-23T10:36:28;19.00;99.90
13354;DHT22;6746;50.892;4.064;2022-09-23T10:39:09;19.10;99.90
13354;DHT22;6746;50.892;4.064;2022-09-23T10:42:12;19.20;99.90
13354;DHT22;6746;50.892;4.064;2022-09-23T11:01:39;19.60;99.90
13354;DHT22;6746;50.892;4.064;2022-09-23T11:07:39;19.60;99.90
13354;DHT22;6746;50.892;4.064;2022-09-23T11:16:06;19.60;99.90
13354;DHT22;6746;50.892;4.064;2022-09-23T11:30:11;19.80;99.90
13354;DHT22;6746;50.892;4.064;2022-09-23T11:32:58;19.80;99.90
13354;DHT22;6746;50.892;4.064;2022-09-23T11:35:37;19.80;99.90
13354;DHT22;6746;50.892;4.064;2022-09-23T11:38:09;19.80;99.90
13354;DHT22;6746;50.892;4.064;2022-09-23T11:40:39;19.80;99.90
13354;DHT22;6746;50.892;4.064;2022-09-23T11:46:10;19.90;99.90
13354;DHT22;6746;50.892;4.064;2022-09-23T11:48:42;20.10;99.90
13354;DHT22;6746;50.892;4.064;2022-09-23T11:51:27;20.10;99.90
13354;DHT22;6746;50.892;4.064;2022-09-23T11:54:02;20.20;99.90
13354;DHT22;6746;50.892;4.064;2022-09-23T11:56:43;20.20;99.90
13354;DHT22;6746;50.892;4.064;2022-09-23T12:01:52;20.10;99.90
13354;DHT22;6746;50.892;4.064;2022-09-23T12:04:36;20.00;99.90
13354;DHT22;6746;50.892;4.064;2022-09-23T12:07:28;20.00;99.90
13354;DHT22;6746;50.892;4.064;2022-09-23T12:10:06;20.00;99.90
13354;DHT22;6746;50.892;4.064;2022-09-23T12:12:39;20.00;99.90
13354;DHT22;6746;50.892;4.064;2022-09-23T12:15:43;20.00;99.90
13354;DHT22;6746;50.892;4.064;2022-09-23T12:18:28;20.00;99.90
13354;DHT22;6746;50.892;4.064;2022-09-23T12:21:22;20.00;99.90
13354;DHT22;6746;50.892;4.064;2022-09-23T12:24:36;20.10;99.90
13354;DHT22;6746;50.892;4.064;2022-09-23T12:28:18;20.00;99.90
13354;DHT22;6746;50.892;4.064;2022-09-23T12:30:03;20.00;99.90
13354;DHT22;6746;50.892;4.064;2022-09-23T12:32:39;20.00;99.90
13354;DHT22;6746;50.892;4.064;2022-09-23T12:35:29;20.00;99.90
13354;DHT22;6746;50.892;4.064;2022-09-23T12:37:54;20.00;99.90
13354;DHT22;6746;50.892;4.064;2022-09-23T12:40:24;20.10;99.90
13354;DHT22;6746;50.892;4.064;2022-09-23T12:42:56;20.20;99.90
13354;DHT22;6746;50.892;4.064;2022-09-23T12:50:47;20.00;99.90
13354;DHT22;6746;50.892;4.064;2022-09-23T12:56:15;20.00;99.90
13354;DHT22;6746;50.892;4.064;2022-09-23T13:01:19;19.80;99.90
13354;DHT22;6746;50.892;4.064;2022-09-23T13:03:51;20.00;99.90
13354;DHT22;6746;50.892;4.064;2022-09-23T13:09:30;20.20;99.90
13354;DHT22;6746;50.892;4.064;2022-09-23T13:12:01;20.30;99.90
13354;DHT22;6746;50.892;4.064;2022-09-23T13:14:35;20.40;99.90
13354;DHT22;6746;50.892;4.064;2022-09-23T13:17:03;20.40;99.90
13354;DHT22;6746;50.892;4.064;2022-09-23T13:19:43;20.50;99.90
13354;DHT22;6746;50.892;4.064;2022-09-23T13:25:30;20.50;99.90
13354;DHT22;6746;50.892;4.064;2022-09-23T13:28:11;20.40;99.90
13354;DHT22;6746;50.892;4.064;2022-09-23T13:30:48;20.40;99.90
13354;DHT22;6746;50.892;4.064;2022-09-23T13:33:21;20.40;99.90
13354;DHT22;6746;50.892;4.064;2022-09-23T13:35:48;20.30;99.90
13354;DHT22;6746;50.892;4.064;2022-09-23T13:38:29;20.30;99.90
13354;DHT22;6746;50.892;4.064;2022-09-23T13:41:06;20.30;99.90
13354;DHT22;6746;50.892;4.064;2022-09-23T13:43:35;20.40;99.90
13354;DHT22;6746;50.892;4.064;2022-09-23T13:46:24;20.30;99.90
13354;DHT22;6746;50.892;4.064;2022-09-23T13:49:24;20.40;99.90
13354;DHT22;6746;50.892;4.064;2022-09-23T13:51:53;20.40;99.90
13354;DHT22;6746;50.892;4.064;2022-09-23T13:54:29;20.40;99.90
13354;DHT22;6746;50.892;4.064;2022-09-23T13:56:59;20.30;99.90
13354;DHT22;6746;50.892;4.064;2022-09-23T13:59:29;20.20;99.90
13354;DHT22;6746;50.892;4.064;2022-09-23T14:02:09;20.20;99.90
13354;DHT22;6746;50.892;4.064;2022-09-23T14:04:31;20.10;99.90
13354;DHT22;6746;50.892;4.064;2022-09-23T14:07:11;20.00;99.90
13354;DHT22;6746;50.892;4.064;2022-09-23T14:09:45;20.00;99.90
13354;DHT22;6746;50.892;4.064;2022-09-23T14:12:13;19.90;99.90
13354;DHT22;6746;50.892;4.064;2022-09-23T14:14:44;19.80;99.90
13354;DHT22;6746;50.892;4.064;2022-09-23T14:17:15;19.70;99.90
13354;DHT22;6746;50.892;4.064;2022-09-23T14:19:50;19.70;99.90
13354;DHT22;6746;50.892;4.064;2022-09-23T14:22:22;19.60;99.90
13354;DHT22;6746;50.892;4.064;2022-09-23T14:25:00;19.60;99.90
13354;DHT22;6746;50.892;4.064;2022-09-23T14:27:29;19.60;99.90
13354;DHT22;6746;50.892;4.064;2022-09-23T14:29:57;19.50;99.90
13354;DHT22;6746;50.892;4.064;2022-09-23T14:32:31;19.50;99.90
13354;DHT22;6746;50.892;4.064;2022-09-23T14:37:42;19.40;99.90
13354;DHT22;6746;50.892;4.064;2022-09-23T14:40:59;19.40;99.90
13354;DHT22;6746;50.892;4.064;2022-09-23T14:43:27;19.40;99.90
13354;DHT22;6746;50.892;4.064;2022-09-23T14:45:56;19.40;99.90
13354;DHT22;6746;50.892;4.064;2022-09-23T14:48:34;19.40;99.90
13354;DHT22;6746;50.892;4.064;2022-09-23T14:51:03;19.40;99.90
13354;DHT22;6746;50.892;4.064;2022-09-23T14:53:40;19.30;99.90
13354;DHT22;6746;50.892;4.064;2022-09-23T14:56:19;19.30;99.90
13354;DHT22;6746;50.892;4.064;2022-09-23T14:58:57;19.20;99.90
13354;DHT22;6746;50.892;4.064;2022-09-23T15:01:37;19.20;99.90
13354;DHT22;6746;50.892;4.064;2022-09-23T15:04:10;19.20;99.90
13354;DHT22;6746;50.892;4.064;2022-09-23T15:06:38;19.10;99.90
13354;DHT22;6746;50.892;4.064;2022-09-23T15:09:41;19.00;99.90
13354;DHT22;6746;50.892;4.064;2022-09-23T15:12:16;18.90;99.90
13354;DHT22;6746;50.892;4.064;2022-09-23T15:14:51;18.80;99.90
13354;DHT22;6746;50.892;4.064;2022-09-23T15:20:16;18.50;99.90
13354;DHT22;6746;50.892;4.064;2022-09-23T15:22:37;18.30;99.90
13354;DHT22;6746;50.892;4.064;2022-09-23T15:25:20;18.20;99.90
13354;DHT22;6746;50.892;4.064;2022-09-23T15:30:41;18.00;99.90
13354;DHT22;6746;50.892;4.064;2022-09-23T15:33:12;18.00;99.90
13354;DHT22;6746;50.892;4.064;2022-09-23T15:35:47;18.00;99.90
13354;DHT22;6746;50.892;4.064;2022-09-23T15:38:15;17.90;99.90
13354;DHT22;6746;50.892;4.064;2022-09-23T15:40:54;17.80;99.90
13354;DHT22;6746;50.892;4.064;2022-09-23T15:43:25;17.80;99.90
13354;DHT22;6746;50.892;4.064;2022-09-23T15:45:57;17.80;99.90
13354;DHT22;6746;50.892;4.064;2022-09-23T15:48:36;17.70;99.90
13354;DHT22;6746;50.892;4.064;2022-09-23T15:51:13;17.70;99.90
13354;DHT22;6746;50.892;4.064;2022-09-23T15:53:51;17.70;99.90
13354;DHT22;6746;50.892;4.064;2022-09-23T15:56:28;17.70;99.90
13354;DHT22;6746;50.892;4.064;2022-09-23T15:58:57;17.60;99.90
13354;DHT22;6746;50.892;4.064;2022-09-23T16:01:35;17.60;99.90
13354;DHT22;6746;50.892;4.064;2022-09-23T16:04:14;17.50;99.90
13354;DHT22;6746;50.892;4.064;2022-09-23T16:06:52;17.40;99.90
13354;DHT22;6746;50.892;4.064;2022-09-23T16:09:21;17.40;99.90
13354;DHT22;6746;50.892;4.064;2022-09-23T16:11:50;17.40;99.90
13354;DHT22;6746;50.892;4.064;2022-09-23T16:14:29;17.40;99.90
13354;DHT22;6746;50.892;4.064;2022-09-23T16:17:06;17.30;99.90
13354;DHT22;6746;50.892;4.064;2022-09-23T16:19:34;17.20;99.90
13354;DHT22;6746;50.892;4.064;2022-09-23T16:22:03;17.10;99.90
13354;DHT22;6746;50.892;4.064;2022-09-23T16:24:32;17.10;99.90
13354;DHT22;6746;50.892;4.064;2022-09-23T16:27:12;17.10;99.90
13354;DHT22;6746;50.892;4.064;2022-09-23T16:29:40;17.10;99.90
13354;DHT22;6746;50.892;4.064;2022-09-23T16:32:09;17.00;99.90
13354;DHT22;6746;50.892;4.064;2022-09-23T16:34:40;17.00;99.90
13354;DHT22;6746;50.892;4.064;2022-09-23T16:37:28;16.90;99.90
13354;DHT22;6746;50.892;4.064;2022-09-23T16:39:57;16.90;99.90
13354;DHT22;6746;50.892;4.064;2022-09-23T16:42:26;16.90;99.90
13354;DHT22;6746;50.892;4.064;2022-09-23T16:45:00;16.90;99.90
13354;DHT22;6746;50.892;4.064;2022-09-23T16:47:29;16.80;99.90
13354;DHT22;6746;50.892;4.064;2022-09-23T16:50:08;16.80;99.90
13354;DHT22;6746;50.892;4.064;2022-09-23T16:52:42;16.70;99.90
13354;DHT22;6746;50.892;4.064;2022-09-23T16:55:10;16.70;99.90
13354;DHT22;6746;50.892;4.064;2022-09-23T16:57:44;16.60;99.90
13354;DHT22;6746;50.892;4.064;2022-09-23T17:00:13;16.60;99.90
13354;DHT22;6746;50.892;4.064;2022-09-23T17:03:10;16.50;99.90
13354;DHT22;6746;50.892;4.064;2022-09-23T17:06:11;16.60;99.90
13354;DHT22;6746;50.892;4.064;2022-09-23T17:08:50;16.50;99.90
13354;DHT22;6746;50.892;4.064;2022-09-23T17:11:38;16.40;99.90
13354;DHT22;6746;50.892;4.064;2022-09-23T17:14:16;16.40;99.90
13354;DHT22;6746;50.892;4.064;2022-09-23T17:16:56;16.40;99.90
13354;DHT22;6746;50.892;4.064;2022-09-23T17:19:26;16.40;99.90
13354;DHT22;6746;50.892;4.064;2022-09-23T17:21:55;16.30;99.90
13354;DHT22;6746;50.892;4.064;2022-09-23T17:24:31;16.30;99.90
13354;DHT22;6746;50.892;4.064;2022-09-23T17:27:00;16.30;99.90
13354;DHT22;6746;50.892;4.064;2022-09-23T17:29:31;16.20;99.90
13354;DHT22;6746;50.892;4.064;2022-09-23T17:32:02;16.20;99.90
13354;DHT22;6746;50.892;4.064;2022-09-23T17:34:36;16.20;99.90
13354;DHT22;6746;50.892;4.064;2022-09-23T17:37:05;16.10;99.90
13354;DHT22;6746;50.892;4.064;2022-09-23T17:39:42;16.10;99.90
13354;DHT22;6746;50.892;4.064;2022-09-23T17:42:11;16.10;99.90
13354;DHT22;6746;50.892;4.064;2022-09-23T17:44:49;16.00;99.90
13354;DHT22;6746;50.892;4.064;2022-09-23T17:47:27;16.00;99.90
13354;DHT22;6746;50.892;4.064;2022-09-23T17:50:15;16.00;99.90
13354;DHT22;6746;50.892;4.064;2022-09-23T17:53:03;15.90;99.90
13354;DHT22;6746;50.892;4.064;2022-09-23T17:55:56;15.90;99.90
13354;DHT22;6746;50.892;4.064;2022-09-23T17:58:37;15.80;99.90
13354;DHT22;6746;50.892;4.064;2022-09-23T18:01:17;15.80;99.90
13354;DHT22;6746;50.892;4.064;2022-09-23T18:03:54;15.80;99.90
13354;DHT22;6746;50.892;4.064;2022-09-23T18:06:35;15.80;99.90
13354;DHT22;6746;50.892;4.064;2022-09-23T18:09:20;15.80;99.90
13354;DHT22;6746;50.892;4.064;2022-09-23T18:11:58;15.70;99.90
13354;DHT22;6746;50.892;4.064;2022-09-23T18:14:46;15.70;99.90
13354;DHT22;6746;50.892;4.064;2022-09-23T18:17:24;15.70;99.90
13354;DHT22;6746;50.892;4.064;2022-09-23T18:20:03;15.60;99.90
13354;DHT22;6746;50.892;4.064;2022-09-23T18:22:43;15.60;99.90
13354;DHT22;6746;50.892;4.064;2022-09-23T18:25:21;15.60;99.90
13354;DHT22;6746;50.892;4.064;2022-09-23T18:28:10;15.60;99.90
13354;DHT22;6746;50.892;4.064;2022-09-23T18:30:54;15.50;99.90
13354;DHT22;6746;50.892;4.064;2022-09-23T18:33:32;15.50;99.90
13354;DHT22;6746;50.892;4.064;2022-09-23T18:36:21;15.40;99.90
13354;DHT22;6746;50.892;4.064;2022-09-23T18:39:08;15.40;99.90
13354;DHT22;6746;50.892;4.064;2022-09-23T18:41:50;15.40;99.90
13354;DHT22;6746;50.892;4.064;2022-09-23T18:44:28;15.40;99.90
13354;DHT22;6746;50.892;4.064;2022-09-23T18:47:06;15.40;99.90
13354;DHT22;6746;50.892;4.064;2022-09-23T18:49:44;15.30;99.90
13354;DHT22;6746;50.892;4.064;2022-09-23T18:52:25;15.40;99.90
13354;DHT22;6746;50.892;4.064;2022-09-23T18:55:04;15.30;99.90
13354;DHT22;6746;50.892;4.064;2022-09-23T18:57:52;15.30;99.90
13354;DHT22;6746;50.892;4.064;2022-09-23T19:00:33;15.30;99.90
13354;DHT22;6746;50.892;4.064;2022-09-23T19:03:11;15.30;99.90
13354;DHT22;6746;50.892;4.064;2022-09-23T19:05:52;15.30;99.90
13354;DHT22;6746;50.892;4.064;2022-09-23T19:08:30;15.20;99.90
13354;DHT22;6746;50.892;4.064;2022-09-23T19:11:11;15.20;99.90
13354;DHT22;6746;50.892;4.064;2022-09-23T19:13:55;15.20;99.90
13354;DHT22;6746;50.892;4.064;2022-09-23T19:16:30;15.20;99.90
13354;DHT22;6746;50.892;4.064;2022-09-23T19:19:08;15.10;99.90